Aplin, Arkansas
Current Conditions -  °F | °C
As of 3:53 PM on Sunday 23 Nov 2014 (Local Time) from KRUE Reporting Station
Overcast Overcast  
Wind Chill: 17°   Ceiling: 2400
Heat Index: 17°   Visibility: 10mi
Dew Point: 15°   Wind: 3mph
Humidity: 87%   Direction: 90°E
Pressure: 29.31"   Gusts: NA
Location:  34.9067°N, 93.0072°W
Report Text: KRUE 232153Z AUTO 09003KT 10SM SCT008 OVC024 17/15 A2931 RMK AO2 SLP919 T01720150
Loading
Personal Weather Stations






























Interactive Weather Map New forecast layout! Learn more

10-Day Weather Forecast

Advertisements
Track Severe Weather on mobile